createdAt,value
2017-08-03T00:00:42.672Z,1.90
2017-08-03T00:03:16.194Z,1.87
2017-08-03T00:05:50.401Z,2.20
2017-08-03T00:08:21.069Z,1.97
2017-08-03T00:10:51.121Z,1.97
2017-08-03T00:13:22.134Z,2.10
2017-08-03T00:15:53.931Z,2.30
2017-08-03T00:18:26.309Z,3.10
2017-08-03T00:20:57.645Z,2.83
2017-08-03T00:23:27.940Z,2.70
2017-08-03T00:25:58.287Z,2.40
2017-08-03T00:28:28.772Z,2.10
2017-08-03T00:30:58.940Z,3.37
2017-08-03T00:33:29.975Z,2.80
2017-08-03T00:36:05.996Z,1.97
2017-08-03T00:38:36.296Z,1.47
2017-08-03T00:41:06.599Z,2.00
2017-08-03T00:43:36.709Z,1.70
2017-08-03T00:46:06.953Z,2.30
2017-08-03T00:48:37.240Z,1.80
2017-08-03T00:51:07.696Z,2.10
2017-08-03T00:53:38.350Z,2.37
2017-08-03T00:56:12.654Z,2.70
2017-08-03T00:58:46.253Z,2.70
2017-08-03T01:01:17.454Z,2.60
2017-08-03T01:03:48.670Z,2.77
2017-08-03T01:06:22.300Z,2.77
2017-08-03T01:08:52.978Z,2.70
2017-08-03T01:11:26.989Z,4.13
2017-08-03T01:14:00.398Z,4.90
2017-08-03T01:16:30.575Z,4.10
2017-08-03T01:19:00.869Z,3.70
2017-08-03T01:21:35.457Z,3.90
2017-08-03T01:24:06.665Z,3.50
2017-08-03T01:26:37.062Z,3.47
2017-08-03T01:29:07.560Z,3.90
2017-08-03T01:31:38.872Z,3.27
2017-08-03T01:34:09.358Z,2.87
2017-08-03T01:36:40.708Z,4.03
2017-08-03T01:39:12.153Z,2.80
2017-08-03T01:41:42.395Z,3.60
2017-08-03T01:44:12.390Z,3.80
2017-08-03T01:46:47.356Z,3.43
2017-08-03T01:49:17.480Z,4.37
2017-08-03T01:51:47.886Z,3.60
2017-08-03T01:54:18.595Z,4.87
2017-08-03T01:56:49.661Z,7.30
2017-08-03T01:59:23.436Z,6.70
2017-08-03T02:01:57.775Z,6.10
2017-08-03T02:04:29.657Z,6.80
2017-08-03T02:07:00.506Z,5.80
2017-08-03T02:09:30.742Z,7.40
2017-08-03T02:12:01.577Z,6.70
2017-08-03T02:14:39.571Z,6.90
2017-08-03T02:17:10.397Z,8.07
2017-08-03T02:19:42.294Z,7.60
2017-08-03T02:22:12.793Z,11.93
2017-08-03T02:24:45.719Z,9.23
2017-08-03T02:27:16.207Z,13.07
2017-08-03T02:29:46.617Z,12.33
2017-08-03T02:32:16.964Z,12.73
2017-08-03T02:34:47.393Z,14.03
2017-08-03T02:37:17.920Z,13.40
2017-08-03T02:39:48.092Z,15.47
2017-08-03T02:42:18.381Z,13.70
2017-08-03T02:44:48.796Z,13.83
2017-08-03T02:47:19.335Z,16.03
2017-08-03T02:49:50.847Z,14.97
2017-08-03T02:52:21.713Z,15.83
2017-08-03T02:54:52.803Z,17.93
2017-08-03T02:57:23.616Z,17.03
2017-08-03T02:59:55.001Z,16.80
2017-08-03T03:02:27.182Z,16.20
2017-08-03T03:04:58.092Z,15.70
2017-08-03T03:07:30.069Z,17.60
2017-08-03T03:10:00.431Z,15.10
2017-08-03T03:12:31.300Z,14.37
2017-08-03T03:15:03.677Z,12.17
2017-08-03T03:17:36.984Z,11.93
2017-08-03T03:20:09.940Z,10.63
2017-08-03T03:22:41.350Z,9.83
2017-08-03T03:25:11.724Z,13.80
2017-08-03T03:27:42.725Z,12.60
2017-08-03T03:30:13.013Z,13.00
2017-08-03T03:32:43.222Z,13.73
2017-08-03T03:35:13.397Z,13.93
2017-08-03T03:37:43.730Z,12.87
2017-08-03T03:40:13.873Z,14.73
2017-08-03T03:42:45.040Z,15.60
2017-08-03T03:45:15.201Z,15.70
2017-08-03T03:47:45.501Z,15.90
2017-08-03T03:50:15.806Z,17.40
2017-08-03T03:52:46.240Z,16.97
2017-08-03T03:55:18.781Z,17.30
2017-08-03T03:57:49.116Z,18.77
2017-08-03T04:00:20.173Z,16.87
2017-08-03T04:02:52.380Z,15.87
2017-08-03T04:05:23.219Z,15.40
2017-08-03T04:07:54.414Z,13.10
2017-08-03T04:10:25.584Z,13.80
2017-08-03T04:12:56.117Z,13.40
2017-08-03T04:15:30.609Z,13.87
2017-08-03T04:18:01.830Z,14.83
2017-08-03T04:20:33.254Z,14.83
2017-08-03T04:23:03.936Z,14.10
2017-08-03T04:25:34.280Z,11.97
2017-08-03T04:28:05.339Z,13.03
2017-08-03T04:30:36.592Z,10.90
2017-08-03T04:33:07.037Z,8.80
2017-08-03T04:35:37.239Z,10.13
2017-08-03T04:38:07.484Z,11.90
2017-08-03T04:40:37.891Z,12.47
2017-08-03T04:43:08.126Z,15.67
2017-08-03T04:45:38.416Z,17.03
2017-08-03T04:48:08.820Z,12.90
2017-08-03T04:50:39.140Z,15.43
2017-08-03T04:53:09.324Z,16.03
2017-08-03T04:55:39.960Z,13.40
2017-08-03T04:58:10.226Z,12.37
2017-08-03T05:00:40.658Z,14.07
2017-08-03T05:03:10.771Z,13.93
2017-08-03T05:05:40.861Z,12.47
2017-08-03T05:08:11.303Z,14.40
2017-08-03T05:10:41.756Z,11.30
2017-08-03T05:13:12.137Z,12.13
2017-08-03T05:15:42.475Z,13.30
2017-08-03T05:18:12.893Z,11.50
2017-08-03T05:20:43.424Z,13.00
2017-08-03T05:23:14.096Z,11.23
2017-08-03T05:25:44.656Z,11.20
2017-08-03T05:28:15.732Z,10.53
2017-08-03T05:30:46.056Z,9.57
2017-08-03T05:33:16.426Z,9.50
2017-08-03T05:35:46.500Z,10.90
2017-08-03T05:38:16.941Z,10.27
2017-08-03T05:40:47.270Z,10.30
2017-08-03T05:43:17.751Z,11.63
2017-08-03T05:45:48.014Z,10.77
2017-08-03T05:48:18.248Z,11.73
2017-08-03T05:50:48.552Z,11.90
2017-08-03T05:53:24.363Z,11.10
2017-08-03T05:55:55.095Z,9.83
2017-08-03T05:58:25.379Z,10.07
2017-08-03T06:00:55.729Z,9.37
2017-08-03T06:03:26.038Z,9.40
2017-08-03T06:05:56.167Z,8.97
2017-08-03T06:08:26.579Z,8.63
2017-08-03T06:10:57.102Z,9.60
2017-08-03T06:13:27.387Z,8.70
2017-08-03T06:15:57.893Z,8.73
2017-08-03T06:18:28.196Z,8.17
2017-08-03T06:20:58.517Z,7.43
2017-08-03T06:23:28.953Z,7.27
2017-08-03T06:25:59.559Z,6.80
2017-08-03T06:28:30.522Z,6.80
2017-08-03T06:31:01.664Z,6.63
2017-08-03T06:33:31.797Z,6.87
2017-08-03T06:36:02.009Z,6.87
2017-08-03T06:38:33.156Z,7.37
2017-08-03T06:41:03.572Z,7.23
2017-08-03T06:43:34.636Z,5.87
2017-08-03T06:46:04.749Z,6.40
2017-08-03T06:48:35.181Z,6.97
2017-08-03T06:51:05.559Z,6.33
2017-08-03T06:53:36.483Z,8.07
2017-08-03T06:56:07.648Z,6.93
2017-08-03T06:58:38.477Z,7.70
2017-08-03T07:01:09.328Z,6.40
2017-08-03T07:03:39.592Z,6.57
2017-08-03T07:06:10.213Z,6.33
2017-08-03T07:08:41.318Z,7.53
2017-08-03T07:11:11.682Z,7.10
2017-08-03T07:13:42.769Z,7.10
2017-08-03T07:16:15.486Z,6.80
2017-08-03T07:18:46.326Z,7.10
2017-08-03T07:21:17.334Z,7.93
2017-08-03T07:23:48.289Z,7.37
2017-08-03T07:26:18.670Z,7.30
2017-08-03T07:28:49.324Z,7.40
2017-08-03T07:31:20.993Z,7.10
2017-08-03T07:33:51.934Z,7.27
2017-08-03T07:36:24.094Z,7.90
2017-08-03T07:38:55.010Z,8.10
2017-08-03T07:41:25.323Z,7.07
2017-08-03T07:43:56.484Z,7.63
2017-08-03T07:46:26.684Z,7.90
2017-08-03T07:49:01.496Z,7.53
2017-08-03T07:51:32.256Z,8.23
2017-08-03T07:54:05.743Z,12.33
2017-08-03T07:56:37.858Z,9.63
2017-08-03T07:59:10.807Z,8.23
2017-08-03T08:01:41.864Z,10.30
2017-08-03T08:04:18.273Z,9.63
2017-08-03T08:09:11.916Z,8.90
2017-08-03T08:11:43.176Z,9.70
2017-08-03T08:14:14.035Z,7.90
2017-08-03T08:16:46.909Z,8.67
2017-08-03T08:19:18.025Z,8.13
2017-08-03T08:21:54.800Z,7.00
2017-08-03T08:24:25.036Z,6.50
2017-08-03T08:27:01.220Z,6.70
2017-08-03T08:29:32.764Z,6.90
2017-08-03T08:32:04.013Z,6.60
2017-08-03T08:34:34.760Z,5.93
2017-08-03T08:37:05.222Z,5.97
2017-08-03T08:39:37.033Z,5.37
2017-08-03T08:42:07.318Z,5.10
2017-08-03T08:44:37.690Z,4.90
2017-08-03T08:47:08.065Z,5.93
2017-08-03T08:49:38.452Z,4.80
2017-08-03T08:52:08.789Z,4.80
2017-08-03T08:54:39.180Z,5.37
2017-08-03T08:57:12.136Z,5.57
2017-08-03T08:59:43.769Z,4.80
2017-08-03T09:02:14.517Z,5.70
2017-08-03T09:04:44.791Z,5.97
2017-08-03T09:07:15.740Z,6.70
2017-08-03T09:09:46.840Z,6.60
2017-08-03T09:12:17.825Z,5.20
2017-08-03T09:14:48.244Z,6.50
2017-08-03T09:17:19.641Z,5.57
2017-08-03T09:19:54.804Z,5.80
2017-08-03T09:22:26.601Z,6.33
2017-08-03T09:24:57.496Z,5.87
2017-08-03T09:27:28.670Z,5.83
2017-08-03T09:30:01.133Z,6.20
2017-08-03T09:32:33.088Z,6.93
2017-08-03T09:35:04.038Z,6.90
2017-08-03T09:37:36.901Z,6.63
2017-08-03T09:40:09.431Z,6.93
2017-08-03T09:42:42.643Z,7.50
2017-08-03T09:45:13.766Z,5.93
2017-08-03T09:47:47.116Z,6.77
2017-08-03T09:50:19.663Z,6.90
2017-08-03T09:52:50.954Z,6.50
2017-08-03T09:55:22.045Z,5.63
2017-08-03T09:57:53.526Z,5.90
2017-08-03T10:00:24.222Z,7.20
2017-08-03T10:02:54.384Z,6.77
2017-08-03T10:05:24.702Z,8.00
2017-08-03T10:07:55.150Z,6.97
2017-08-03T10:10:25.516Z,8.53
2017-08-03T10:13:01.974Z,6.40
2017-08-03T10:15:32.212Z,8.10
2017-08-03T10:18:03.529Z,7.13
2017-08-03T10:20:33.957Z,9.00
2017-08-03T10:23:06.194Z,9.37
2017-08-03T10:25:37.076Z,8.10
2017-08-03T10:28:08.055Z,7.80
2017-08-03T10:30:40.039Z,7.60
2017-08-03T10:33:10.508Z,9.37
2017-08-03T10:35:40.882Z,7.37
2017-08-03T10:38:11.209Z,7.90
2017-08-03T10:40:41.411Z,8.57
2017-08-03T10:43:12.603Z,7.93
2017-08-03T10:45:42.903Z,7.90
2017-08-03T10:48:13.826Z,9.10
2017-08-03T10:50:45.578Z,7.80
2017-08-03T10:53:21.205Z,8.30
2017-08-03T10:55:53.662Z,8.47
2017-08-03T10:58:24.372Z,9.07
2017-08-03T11:00:54.672Z,9.00
2017-08-03T11:03:26.382Z,9.27
2017-08-03T11:05:57.421Z,10.00
2017-08-03T11:08:30.740Z,9.00
2017-08-03T11:11:01.614Z,9.07
2017-08-03T11:13:33.781Z,10.17
2017-08-03T11:16:07.398Z,9.87
2017-08-03T11:18:39.316Z,9.77
2017-08-03T11:21:11.542Z,10.47
2017-08-03T11:23:44.302Z,11.50
2017-08-03T11:26:15.773Z,11.33
2017-08-03T11:28:46.604Z,12.60
2017-08-03T11:31:18.148Z,12.27
2017-08-03T11:33:48.607Z,12.87
2017-08-03T11:36:20.492Z,13.40
2017-08-03T11:38:51.090Z,11.57
2017-08-03T11:41:23.025Z,9.00
2017-08-03T11:43:54.244Z,9.67
2017-08-03T11:46:24.956Z,10.37
2017-08-03T11:48:55.051Z,11.00
2017-08-03T11:51:25.329Z,8.97
2017-08-03T11:53:55.641Z,10.10
2017-08-03T11:56:25.810Z,8.43
2017-08-03T11:58:56.782Z,10.10
2017-08-03T12:01:27.185Z,9.23
2017-08-03T12:03:58.288Z,8.80
2017-08-03T12:06:29.310Z,8.57
2017-08-03T12:09:00.204Z,8.70
2017-08-03T12:11:34.588Z,8.93
2017-08-03T12:14:05.659Z,9.40
2017-08-03T12:16:37.978Z,9.60
2017-08-03T12:19:08.716Z,9.17
2017-08-03T12:21:39.810Z,8.60
2017-08-03T12:24:11.812Z,7.83
2017-08-03T12:26:43.404Z,7.73
2017-08-03T12:29:16.650Z,10.00
2017-08-03T12:31:47.581Z,10.60
2017-08-03T12:34:26.756Z,14.73
2017-08-03T12:36:59.650Z,16.20
2017-08-03T12:39:31.382Z,17.70
2017-08-03T12:42:02.477Z,16.40
2017-08-03T12:44:34.348Z,14.10
2017-08-03T12:47:04.701Z,10.47
2017-08-03T12:49:34.961Z,11.33
2017-08-03T12:52:05.256Z,10.80
2017-08-03T12:54:35.837Z,23.23
2017-08-03T12:57:06.170Z,15.33
2017-08-03T12:59:37.105Z,10.53
2017-08-03T13:02:08.053Z,8.27
2017-08-03T13:04:39.022Z,7.93
2017-08-03T13:07:14.295Z,9.60
2017-08-03T13:09:44.983Z,9.53
2017-08-03T13:12:15.844Z,10.03
2017-08-03T13:14:46.750Z,11.07
2017-08-03T13:17:17.741Z,10.40
2017-08-03T13:19:48.640Z,10.03
2017-08-03T13:22:22.456Z,9.90
2017-08-03T13:24:53.290Z,11.77
2017-08-03T13:27:24.411Z,8.90
2017-08-03T13:29:55.045Z,9.80
2017-08-03T13:32:25.291Z,9.53
2017-08-03T13:34:59.924Z,9.93
2017-08-03T13:37:32.128Z,9.23
2017-08-03T13:40:03.167Z,10.37
2017-08-03T13:42:35.288Z,8.90
2017-08-03T13:45:05.610Z,10.87
2017-08-03T13:47:36.136Z,10.57
2017-08-03T13:50:06.896Z,9.67
2017-08-03T13:52:37.643Z,8.50
2017-08-03T13:55:11.052Z,8.90
2017-08-03T13:57:42.510Z,9.10
2017-08-03T14:00:14.930Z,8.53
2017-08-03T14:02:45.161Z,8.10
2017-08-03T14:05:15.589Z,8.43
2017-08-03T14:07:45.877Z,7.70
2017-08-03T14:10:16.253Z,7.60
2017-08-03T14:12:47.232Z,7.20
2017-08-03T14:15:18.220Z,8.37
2017-08-03T14:17:48.445Z,8.73
2017-08-03T14:20:19.556Z,8.70
2017-08-03T14:22:51.998Z,8.50
2017-08-03T14:25:24.291Z,8.53
2017-08-03T14:27:58.804Z,7.10
2017-08-03T14:30:32.923Z,9.50
2017-08-03T14:33:08.376Z,9.53
2017-08-03T14:35:41.255Z,10.00
2017-08-03T14:38:15.234Z,8.90
2017-08-03T14:40:47.629Z,9.30
2017-08-03T14:43:19.300Z,10.00
2017-08-03T14:45:55.067Z,10.13
2017-08-03T14:48:26.572Z,9.30
2017-08-03T14:50:58.568Z,10.57
2017-08-03T14:53:28.842Z,14.00
2017-08-03T14:55:59.707Z,11.73
2017-08-03T14:58:30.478Z,11.33
2017-08-03T15:01:01.166Z,11.17
2017-08-03T15:03:31.687Z,10.93
2017-08-03T15:06:02.370Z,13.10
2017-08-03T15:08:34.010Z,12.30
2017-08-03T15:11:05.853Z,12.10
2017-08-03T15:13:36.587Z,12.60
2017-08-03T15:16:10.209Z,11.77
2017-08-03T15:18:40.456Z,14.23
2017-08-03T15:21:10.804Z,12.50
2017-08-03T15:23:41.073Z,12.97
2017-08-03T15:26:11.365Z,14.63
2017-08-03T15:28:42.690Z,14.97
2017-08-03T15:31:14.500Z,13.30
2017-08-03T15:33:45.355Z,15.20
2017-08-03T15:36:15.973Z,16.57
2017-08-03T15:38:46.193Z,17.00
2017-08-03T15:41:18.940Z,16.60
2017-08-03T15:43:49.944Z,18.77
2017-08-03T15:46:21.615Z,19.10
2017-08-03T15:48:52.756Z,18.00
2017-08-03T15:51:23.945Z,17.10
2017-08-03T15:53:56.419Z,17.73
2017-08-03T15:56:27.363Z,21.20
2017-08-03T15:58:58.338Z,21.70
2017-08-03T16:01:33.874Z,20.97
2017-08-03T16:04:05.854Z,22.00
2017-08-03T16:06:36.664Z,22.00
2017-08-03T16:09:07.700Z,20.87
2017-08-03T16:11:40.703Z,22.50
2017-08-03T16:14:11.568Z,22.53
2017-08-03T16:16:45.814Z,22.17
2017-08-03T16:19:16.900Z,21.20
2017-08-03T16:21:47.802Z,21.03
2017-08-03T16:24:18.920Z,22.30
2017-08-03T16:26:50.117Z,23.67
2017-08-03T16:29:20.510Z,22.83
2017-08-03T16:31:53.338Z,20.43
2017-08-03T16:34:24.117Z,21.33
2017-08-03T16:36:55.271Z,22.67
2017-08-03T16:39:28.507Z,24.60
2017-08-03T16:41:58.805Z,22.00
2017-08-03T16:44:29.142Z,23.47
2017-08-03T16:46:59.564Z,22.00
2017-08-03T16:49:29.945Z,22.87
2017-08-03T16:52:00.214Z,24.63
2017-08-03T16:54:30.439Z,23.33
2017-08-03T16:57:03.563Z,26.47
2017-08-03T16:59:36.359Z,24.40
2017-08-03T17:02:11.102Z,25.40
2017-08-03T17:04:42.825Z,25.73
2017-08-03T17:07:15.594Z,24.67
2017-08-03T17:09:46.972Z,22.50
2017-08-03T17:12:17.749Z,25.70
2017-08-03T17:14:49.988Z,24.10
2017-08-03T17:17:20.285Z,21.43
2017-08-03T17:19:50.564Z,21.27
2017-08-03T17:22:20.877Z,25.00
2017-08-03T17:24:52.221Z,27.40
2017-08-03T17:27:23.291Z,24.40
2017-08-03T17:29:56.823Z,26.27
2017-08-03T17:32:28.583Z,22.27
2017-08-03T17:34:59.558Z,27.23
2017-08-03T17:37:31.853Z,26.83
2017-08-03T17:40:02.667Z,27.87
2017-08-03T17:42:33.831Z,27.17
2017-08-03T17:45:04.193Z,26.43
2017-08-03T17:47:34.727Z,23.73
2017-08-03T17:50:05.095Z,26.33
2017-08-03T17:52:35.421Z,23.10
2017-08-03T17:55:05.692Z,24.30
2017-08-03T17:57:36.858Z,24.17
2017-08-03T18:00:07.161Z,23.97
2017-08-03T18:02:38.529Z,23.93
2017-08-03T18:05:08.940Z,23.33
2017-08-03T18:07:42.699Z,24.47
2017-08-03T18:10:13.551Z,25.63
2017-08-03T18:12:47.054Z,23.63
2017-08-03T18:15:18.072Z,23.33
2017-08-03T18:17:48.632Z,25.87
2017-08-03T18:20:18.877Z,24.30
2017-08-03T18:22:49.794Z,24.70
2017-08-03T18:25:21.593Z,23.70
2017-08-03T18:27:52.694Z,24.17
2017-08-03T18:30:23.771Z,25.93
2017-08-03T18:32:56.264Z,24.37
2017-08-03T18:35:29.146Z,27.20
2017-08-03T18:38:04.171Z,25.20
2017-08-03T18:40:38.424Z,28.37
2017-08-03T18:43:11.605Z,26.20
2017-08-03T18:45:45.722Z,25.80
2017-08-03T18:48:20.129Z,27.10
2017-08-03T18:50:51.874Z,28.90
2017-08-03T18:53:23.748Z,27.10
2017-08-03T18:55:54.129Z,24.50
2017-08-03T18:58:24.408Z,23.67
2017-08-03T19:00:58.640Z,23.40
2017-08-03T19:03:29.662Z,24.23
2017-08-03T19:06:02.503Z,24.07
2017-08-03T19:08:33.796Z,21.67
2017-08-03T19:11:05.028Z,26.30
2017-08-03T19:13:36.106Z,23.83
2017-08-03T19:16:06.672Z,24.30
2017-08-03T19:18:37.229Z,23.97
2017-08-03T19:21:08.878Z,23.77
2017-08-03T19:23:40.953Z,24.60
2017-08-03T19:26:16.069Z,23.07
2017-08-03T19:28:46.778Z,25.33
2017-08-03T19:31:17.830Z,24.17
2017-08-03T19:33:48.521Z,23.83
2017-08-03T19:36:20.161Z,25.70
2017-08-03T19:38:53.422Z,12.43
2017-08-03T19:41:26.241Z,7.27
2017-08-03T19:43:58.440Z,7.50
2017-08-03T19:46:29.411Z,6.50
2017-08-03T19:49:02.820Z,8.97
2017-08-03T19:51:35.656Z,7.53
2017-08-03T19:54:09.733Z,6.50
2017-08-03T19:56:45.859Z,5.80
2017-08-03T19:59:17.186Z,6.20
2017-08-03T20:01:48.433Z,8.00
2017-08-03T20:04:18.884Z,7.40
2017-08-03T20:06:50.396Z,7.00
2017-08-03T20:09:39.472Z,7.27
2017-08-03T20:12:10.713Z,7.77
2017-08-03T20:14:41.896Z,8.30
2017-08-03T20:17:12.179Z,7.90
2017-08-03T20:19:43.295Z,6.00
2017-08-03T20:22:14.291Z,7.13
2017-08-03T20:24:47.433Z,9.10
2017-08-03T20:29:54.798Z,7.63
2017-08-03T20:32:26.901Z,9.93
2017-08-03T20:34:57.879Z,8.17
2017-08-03T20:37:28.557Z,5.00
2017-08-03T20:39:59.474Z,4.00
2017-08-03T20:42:30.406Z,3.40
2017-08-03T20:45:01.173Z,3.37
2017-08-03T20:47:32.077Z,3.40
2017-08-03T20:50:03.972Z,6.67
2017-08-03T20:52:34.278Z,8.97
2017-08-03T20:55:04.551Z,6.37
2017-08-03T20:57:34.909Z,4.97
2017-08-03T21:00:05.371Z,3.80
2017-08-03T21:02:35.732Z,4.00
2017-08-03T21:05:06.216Z,5.10
2017-08-03T21:07:36.584Z,4.00
2017-08-03T21:10:07.120Z,3.37
2017-08-03T21:12:37.399Z,2.63
2017-08-03T21:15:07.620Z,2.43
2017-08-03T21:17:37.932Z,3.10
2017-08-03T21:20:08.341Z,2.30
2017-08-03T21:22:38.697Z,1.60
2017-08-03T21:25:08.942Z,2.07
2017-08-03T21:27:39.363Z,2.00
2017-08-03T21:30:09.629Z,2.00
2017-08-03T21:32:39.853Z,2.10
2017-08-03T21:35:10.240Z,2.00
2017-08-03T21:37:40.665Z,1.03
2017-08-03T21:40:11.263Z,1.93
2017-08-03T21:42:44.327Z,1.90
2017-08-03T21:45:15.269Z,2.00
2017-08-03T21:47:48.700Z,1.77
2017-08-03T21:50:20.677Z,1.63
2017-08-03T21:52:51.223Z,1.57
2017-08-03T21:55:21.688Z,1.80
2017-08-03T21:57:51.960Z,2.67
2017-08-03T22:00:22.603Z,2.13
2017-08-03T22:02:53.464Z,2.20
2017-08-03T22:05:24.928Z,2.30
2017-08-03T22:07:55.740Z,3.10
2017-08-03T22:10:26.784Z,2.80
2017-08-03T22:12:57.471Z,2.40
2017-08-03T22:15:27.841Z,3.47
2017-08-03T22:17:58.148Z,3.97
2017-08-03T22:20:30.578Z,3.13
2017-08-03T22:23:01.408Z,3.20
2017-08-03T22:25:35.034Z,4.77
2017-08-03T22:28:06.616Z,4.90
2017-08-03T22:30:37.493Z,5.50
2017-08-03T22:33:07.849Z,5.90
2017-08-03T22:35:38.155Z,6.10
2017-08-03T22:38:08.541Z,5.70
2017-08-03T22:40:38.888Z,6.90
2017-08-03T22:43:09.404Z,6.53
2017-08-03T22:45:39.743Z,7.13
2017-08-03T22:48:14.097Z,7.73
2017-08-03T22:50:45.122Z,8.33
2017-08-03T22:53:19.202Z,7.13
2017-08-03T22:55:50.645Z,8.90
2017-08-03T22:58:23.549Z,6.40
2017-08-03T23:00:54.884Z,9.30
2017-08-03T23:03:25.967Z,9.23
2017-08-03T23:05:57.024Z,8.30
2017-08-03T23:08:27.311Z,6.90
2017-08-03T23:10:58.474Z,4.57
2017-08-03T23:13:28.521Z,3.23
2017-08-03T23:15:59.796Z,4.00
2017-08-03T23:18:30.412Z,4.23
2017-08-03T23:21:01.190Z,4.80
2017-08-03T23:23:33.399Z,3.53
2017-08-03T23:26:03.989Z,3.73
2017-08-03T23:28:35.695Z,3.47
2017-08-03T23:31:09.825Z,4.00
2017-08-03T23:33:45.903Z,3.97
2017-08-03T23:36:17.301Z,4.13
2017-08-03T23:38:48.177Z,3.50
2017-08-03T23:41:22.568Z,4.80
2017-08-03T23:43:53.296Z,3.40
2017-08-03T23:46:23.995Z,3.30
2017-08-03T23:48:54.456Z,3.50
2017-08-03T23:51:24.720Z,4.07
2017-08-03T23:53:55.697Z,3.40
2017-08-03T23:56:26.465Z,3.60
2017-08-03T23:58:57.320Z,4.80
